SBOSBO BOM / VABB
Speedbird OnlineSpeedbird Online BOM / VABB

Chhatrapati Shivaji International Airport
02:13 26°C

Location Mumbai, India
Latitude: 19.0886993408
Longitude: 72.8678970337
Web Airport Website | Wikipedia
Altitude 12 Meter / 39 Feet
Distance 7,173 KM / 4,457 Miles
from London.
Time Zone UTC +5.5 hours (Asia/Calcutta)
Codes IATA: BOM
ICAO: VABB
Currency £1 equals INR 88.23
Runways
RunwayLength (m)Surface
093448Asphalt
142871Asphalt
273448Asphalt
322871Asphalt
Radio
TypeDescriptionFrequency
ACCMUMBAI120.5
APPMUMBAI APP127.9
ATISMUMBAI ATIS126.4
CLDMUMBAI CLR DELIVERY121.85
GNDMUMBAI GND121.9
RDOMUMBAI RDO1008.4
RDRRDR119.3
TWRMUMBAI TWR118.1
Live ATC
METAR VABB 242000Z 21003KT 3000 HZ SCT020 SCT025 26/25 Q1007 NOSIG
TAF TAF VABB 242000Z 2421/2506 VRB03KT 2500 -RA HZ SCT018 FEW025TCU BKN090 TEMPO 2421/2503 2000 -TSRA SHRA SCT012 SCT018 FEW030CB OVC080 BECMG 2504/2506 18005KT 2000 -RA HZ SCT020 BKN100
Weather As Of 25 Sep 2022 02:13
Description Haze
Wind 6 km/h from South-West (210°)
Cloud Cover 40%
Precipitation Rain: none, Snow: none
Sunrise 06:27
Sunset 18:32
Lounges MALS Premium Lounge , Terminal 2
Rotations During the last 90 days there were
165 flights from LHR
159 flights to LHR


© 2017-2022 Speedbird Online